createdAt,value
2019-03-04T00:37:09.634Z,4.00
2019-03-04T06:40:56.159Z,0.70
2019-03-04T06:43:15.621Z,0.60
2019-03-04T06:45:31.034Z,0.50
2019-03-04T06:47:46.764Z,0.63
2019-03-04T06:49:54.237Z,0.60
2019-03-04T06:52:19.604Z,0.60
2019-03-04T06:54:55.229Z,0.57
2019-03-04T07:00:38.118Z,0.50
2019-03-04T07:03:01.929Z,0.60
2019-03-04T07:05:51.944Z,0.50
2019-03-04T07:12:58.217Z,0.60
2019-03-04T07:15:08.593Z,0.60
2019-03-04T13:32:49.675Z,1.70
2019-03-04T13:36:01.645Z,1.57
2019-03-04T13:38:38.151Z,2.30
2019-03-04T13:53:57.791Z,1.90
2019-03-04T13:54:54.554Z,2.13
2019-03-04T14:20:13.407Z,1.90
2019-03-04T14:22:57.650Z,1.07
2019-03-04T14:25:39.463Z,1.60
2019-03-04T14:28:10.592Z,2.63
2019-03-04T14:31:12.644Z,3.10
2019-03-04T14:43:52.395Z,2.47
2019-03-04T14:47:05.869Z,2.70
2019-03-04T14:49:30.365Z,1.50
2019-03-04T14:52:59.158Z,1.90
2019-03-04T14:56:28.969Z,1.77
2019-03-04T14:59:34.463Z,2.17
2019-03-04T15:13:25.268Z,1.90
2019-03-04T15:39:35.599Z,2.63
2019-03-04T15:49:33.961Z,2.40
2019-03-04T15:52:18.893Z,2.13
2019-03-04T16:05:47.889Z,3.60
2019-03-04T16:31:11.056Z,1.90
2019-03-04T16:34:17.829Z,2.50
2019-03-04T16:53:47.526Z,2.10
2019-03-04T16:56:29.866Z,2.53
2019-03-04T16:59:12.285Z,2.97
2019-03-04T17:01:35.563Z,1.80
2019-03-04T17:04:02.517Z,2.20
2019-03-04T18:04:15.341Z,2.10
2019-03-04T18:06:58.298Z,2.40
2019-03-04T18:09:55.981Z,2.03
2019-03-04T18:12:32.705Z,2.37
2019-03-04T18:18:27.746Z,2.30
2019-03-04T18:21:15.670Z,1.80
2019-03-04T18:23:46.916Z,2.10
2019-03-04T18:26:29.597Z,2.63
2019-03-04T18:30:00.036Z,3.53
2019-03-04T18:32:22.604Z,2.53
2019-03-04T18:35:34.367Z,3.40
2019-03-04T18:38:24.942Z,2.10
2019-03-04T18:41:26.247Z,2.47
2019-03-04T18:44:21.304Z,2.27
2019-03-04T18:47:08.023Z,2.70
2019-03-04T18:49:25.256Z,2.23
2019-03-04T18:51:36.787Z,2.13
2019-03-04T18:54:30.219Z,2.30
2019-03-04T18:56:47.090Z,2.43
2019-03-04T18:59:12.011Z,2.87
2019-03-04T19:01:45.118Z,2.60
2019-03-04T19:07:55.917Z,2.77
2019-03-04T19:14:10.235Z,2.07
2019-03-04T19:17:11.370Z,1.80
2019-03-04T19:38:36.260Z,1.73
2019-03-04T19:41:02.359Z,1.60
2019-03-04T20:35:01.412Z,1.73
